Latest Weather Observations for Kingscote

IDS60801

Issued at 6:01 pm CDT Tuesday 9 February 2016 (issued every 30 minutes, with the page automatically refreshed every 10 minutes)

About weather observations | Map of weather stations | Latest weather observations for SA | Other Formats
Station Details ID: 022841 Name: KINGSCOTE AERO Lat: -35.71 Lon: 137.52 Height: 6.23 m
Data from the previous 72 hours. | See also: Recent months at Kingscote
Date/Time
CDT
Temp
°C
App
Temp
°C
Dew
Point
Rel
Hum
%
Delta-T
°C
Wind Press
QNH
hPa
Press
MSL
hPa
Rain
since 9 am
mm
Dir
 
Spd
km/h
Gust
km/h
Spd
kts
Gust
kts
09/06:00pm 22.0 18.7 13.9 60 4.7 SSE 24 30 13 16 1017.2 1017.2 0.0
09/05:30pm 22.2 18.1 13.8 59 4.9 SSE 28 35 15 19 1017.4 1017.4 0.0
09/05:00pm 22.7 18.9 13.5 56 5.3 SSE 26 32 14 17 1017.5 1017.5 0.0
09/04:30pm 23.5 19.6 13.4 53 5.8 SE 26 32 14 17 1017.7 1017.7 0.0
09/04:00pm 23.2 19.4 13.7 55 5.5 SE 26 35 14 19 1017.9 1017.9 0.0
09/03:30pm 23.4 19.1 13.3 53 5.8 SSE 28 35 15 19 1018.3 1018.3 0.0
09/03:00pm 24.3 20.3 14.1 53 6.0 SSE 28 37 15 20 1018.6 1018.6 0.0
09/02:30pm 25.4 22.3 14.5 51 6.5 SE 24 33 13 18 1018.7 1018.7 0.0
09/02:00pm 24.7 21.9 14.2 52 6.2 SSE 22 30 12 16 1018.9 1018.9 0.0
09/01:30pm 25.3 22.6 14.7 51 6.3 SSE 22 35 12 19 1019.1 1019.1 0.0
09/01:00pm 24.5 21.8 14.6 54 5.9 SSE 22 28 12 15 1019.3 1019.3 0.0
09/12:30pm 24.2 22.1 13.7 52 6.1 SE 17 24 9 13 1019.5 1019.5 0.0
09/12:00pm 24.1 21.6 13.6 52 6.1 SSE 19 28 10 15 1019.7 1019.7 0.0
09/11:30am 23.3 20.7 13.8 55 5.5 SSE 20 26 11 14 1020.2 1020.2 0.0
09/11:00am 23.4 21.4 14.9 59 5.1 SE 19 24 10 13 1020.2 1020.2 0.0
09/10:30am 21.9 19.5 14.3 62 4.4 SE 20 33 11 18 1020.2 1020.2 0.0
09/10:00am 21.0 18.4 13.7 63 4.2 SE 20 28 11 15 1020.6 1020.6 0.0
09/09:30am 20.2 17.3 14.1 68 3.5 SE 22 28 12 15 1020.9 1020.9 0.0
09/09:00am 19.4 16.6 14.2 72 3.0 SE 22 30 12 16 1021.1 1021.1 0.0
09/08:30am 18.4 15.8 13.9 75 2.6 SE 20 28 11 15 1021.2 1021.2 0.0
09/08:00am 18.0 15.8 14.3 79 2.1 SE 19 26 10 14 1021.0 1021.0 0.0
09/07:49am 17.5 15.7 14.4 82 1.8 SE 17 20 9 11 1021.0 1021.0 0.0
09/07:30am 16.9 15.8 14.2 84 1.5 SE 13 17 7 9 1021.0 1021.0 0.0
09/07:00am 16.4 14.9 14.2 87 1.3 SE 15 20 8 11 1020.8 1020.8 0.0
09/06:30am 16.4 14.6 14.4 88 1.1 SE 17 20 9 11 1020.7 1020.7 0.0
09/06:00am 16.5 14.6 14.3 87 1.3 SE 17 24 9 13 1020.5 1020.5 0.0
09/05:30am 16.9 13.8 14.4 85 1.4 SE 24 30 13 16 1020.5 1020.5 0.0
09/05:00am 17.0 14.2 14.3 84 1.5 SE 22 28 12 15 1020.5 1020.5 0.0
09/04:30am 16.7 14.2 14.2 85 1.4 SE 20 26 11 14 1020.6 1020.6 0.0
09/04:26am 16.6 14.1 14.2 86 1.4 SE 20 28 11 15 1020.6 1020.6 0.0
09/04:00am 16.4 14.0 13.9 85 1.4 SSE 19 26 10 14 1020.9 1020.9 0.0
09/03:30am 16.5 14.1 13.8 84 1.5 SSE 19 26 10 14 1021.0 1021.0 0.0
09/03:00am 16.7 13.7 13.6 82 1.7 SE 22 30 12 16 1021.2 1021.2 0.0
09/02:30am 17.0 14.4 13.7 81 1.9 SE 20 32 11 17 1021.5 1021.5 0.0
09/02:00am 16.9 14.2 13.4 80 2.0 SE 20 30 11 16 1021.8 1021.8 0.0
09/01:30am 17.1 13.7 13.6 80 2.0 SE 24 33 13 18 1022.0 1022.0 0.0
09/01:00am 17.1 13.7 13.8 81 1.9 SE 24 33 13 18 1022.2 1022.2 0.0
09/12:30am 17.2 14.2 13.7 80 2.0 SSE 22 32 12 17 1022.4 1022.4 0.0
09/12:00am 17.2 14.6 13.9 81 1.9 SSE 20 32 11 17 1022.4 1022.4 0.0
 
Date/Time
CDT
Temp
°C
App
Temp
°C
Dew
Point
Rel
Hum
%
Delta-T
°C
Wind Press
QNH
hPa
Press
MSL
hPa
Rain
since 9 am
mm
Dir
 
Spd
km/h
Gust
km/h
Spd
kts
Gust
kts
08/11:30pm 17.4 13.2 13.5 78 2.2 SSE 28 43 15 23 1022.5 1022.5 0.0
08/11:00pm 17.8 14.5 13.9 78 2.2 SE 24 35 13 19 1022.9 1022.9 0.0
08/10:30pm 17.9 13.5 14.0 78 2.2 SE 30 39 16 21 1023.1 1023.1 0.0
08/10:00pm 18.1 15.7 14.4 79 2.1 SE 20 35 11 19 1023.0 1023.0 0.0
08/09:30pm 18.0 14.4 14.3 79 2.1 SSE 26 35 14 19 1022.8 1022.8 0.0
08/09:00pm 18.1 14.1 14.2 78 2.2 SSE 28 41 15 22 1022.5 1022.5 0.0
08/08:30pm 18.3 13.9 14.2 77 2.3 SSE 30 43 16 23 1022.3 1022.3 0.0
08/08:00pm 18.8 14.5 14.3 75 2.6 SSE 30 46 16 25 1022.2 1022.2 0.0
08/07:30pm 19.4 14.5 14.2 72 3.0 SE 33 44 18 24 1022.1 1022.1 0.0
08/07:00pm 19.8 14.8 14.0 69 3.3 SSE 33 43 18 23 1022.0 1022.0 0.0
08/06:30pm 20.7 15.3 13.9 65 3.9 SSE 35 46 19 25 1021.9 1021.9 0.0
08/06:00pm 21.5 16.2 13.2 59 4.7 SE 33 46 18 25 1021.9 1021.9 0.0
08/05:30pm 22.0 16.2 12.8 56 5.2 SE 35 48 19 26 1022.1 1022.1 0.0
08/05:00pm 22.2 16.7 12.5 54 5.5 SE 33 46 18 25 1022.3 1022.3 0.0
08/04:30pm 22.0 16.1 12.5 54 5.4 SSE 35 50 19 27 1022.5 1022.5 0.0
08/04:00pm 22.5 17.2 13.0 55 5.4 SSE 33 44 18 24 1022.7 1022.7 0.0
08/03:30pm 22.3 16.4 12.5 53 5.5 SE 35 46 19 25 1022.9 1022.9 0.0
08/03:00pm 22.1 16.7 12.9 56 5.2 SE 33 44 18 24 1023.0 1023.0 0.0
08/02:30pm 22.4 17.4 13.5 57 5.1 SSE 32 46 17 25 1023.2 1023.2 0.0
08/02:00pm 22.1 17.0 13.2 57 5.1 SE 32 43 17 23 1023.4 1023.4 0.0
08/01:30pm 21.3 15.6 13.0 59 4.7 SSE 35 43 19 23 1023.6 1023.6 0.0
08/01:00pm 22.2 17.0 13.3 57 5.1 SE 33 43 18 23 1023.8 1023.8 0.0
08/12:30pm 21.1 16.0 13.0 60 4.6 SSE 32 43 17 23 1023.9 1023.9 0.0
08/12:00pm 23.0 17.9 13.8 56 5.3 SE 33 46 18 25 1024.0 1024.0 0.0
08/11:30am 20.7 16.1 13.6 64 4.1 SSE 30 37 16 20 1024.1 1024.1 0.0
08/11:00am 19.8 15.0 13.0 65 3.8 SE 30 43 16 23 1024.1 1024.1 0.0
08/10:30am 19.6 14.5 13.1 66 3.7 SE 32 43 17 23 1024.2 1024.2 0.0
08/10:00am 19.1 14.5 12.4 65 3.7 SSE 28 41 15 22 1024.3 1024.3 0.0
08/09:30am 18.6 13.6 12.1 66 3.6 SE 30 39 16 21 1024.2 1024.2 0.0
08/09:00am 18.3 13.7 12.3 68 3.3 SE 28 41 15 22 1024.1 1024.1 0.0
08/08:30am 17.9 13.2 12.1 69 3.2 SE 28 35 15 19 1023.8 1023.8 0.0
08/08:00am 17.7 14.6 12.2 70 3.0 SE 20 35 11 19 1023.4 1023.4 0.0
08/07:30am 17.5 13.7 12.4 72 2.8 SE 24 33 13 18 1023.3 1023.3 0.0
08/07:00am 17.3 13.8 12.2 72 2.8 SSE 22 33 12 18 1023.0 1023.0 0.0
08/06:30am 17.2 13.2 11.9 71 2.9 SSE 24 39 13 21 1022.7 1022.7 0.0
08/06:00am 17.2 13.3 12.1 72 2.8 SE 24 32 13 17 1022.4 1022.4 0.0
08/05:30am 17.0 14.4 11.9 72 2.8 SE 17 24 9 13 1022.0 1022.0 0.0
08/05:00am 17.1 13.5 12.0 72 2.8 SE 22 35 12 19 1021.8 1021.8 0.0
08/04:30am 17.2 12.9 11.9 71 2.9 SSE 26 35 14 19 1021.7 1021.7 0.0
08/04:00am 17.2 12.5 11.9 71 2.9 SSE 28 39 15 21 1021.7 1021.7 0.0
08/03:30am 17.3 14.1 12.0 71 2.9 SSE 20 28 11 15 1021.7 1021.7 0.0
08/03:00am 17.3 14.1 11.8 70 3.0 SSE 20 33 11 18 1021.9 1021.9 0.0
08/02:30am 17.3 13.4 12.0 71 2.9 SSE 24 33 13 18 1021.9 1021.9 0.0
08/02:00am 17.6 13.7 12.1 70 3.0 SSE 24 35 13 19 1022.1 1022.1 0.0
08/01:30am 17.3 13.3 11.8 70 3.0 SSE 24 32 13 17 1022.3 1022.3 0.0
08/01:00am 17.5 12.7 11.8 69 3.1 SE 28 39 15 21 1022.4 1022.4 0.0
08/12:30am 17.8 14.6 12.0 69 3.2 SSE 20 32 11 17 1022.5 1022.5 0.0
08/12:00am 18.1 13.8 12.1 68 3.3 SSE 26 32 14 17 1022.5 1022.5 0.0
 
Date/Time
CDT
Temp
°C
App
Temp
°C
Dew
Point
Rel
Hum
%
Delta-T
°C
Wind Press
QNH
hPa
Press
MSL
hPa
Rain
since 9 am
mm
Dir
 
Spd
km/h
Gust
km/h
Spd
kts
Gust
kts
07/11:30pm 18.0 15.0 12.7 71 2.9 SSE 20 26 11 14 1022.5 1022.5 0.0
07/11:00pm 18.1 14.5 13.0 72 2.9 SSE 24 30 13 16 1022.5 1022.5 0.0
07/10:30pm 18.3 15.4 13.0 71 3.0 SSE 20 28 11 15 1022.3 1022.3 0.0
07/10:00pm 18.4 14.8 13.1 71 3.0 SSE 24 33 13 18 1022.1 1022.1 0.0
07/09:30pm 18.3 15.4 14.0 76 2.5 S 22 33 12 18 1021.6 1021.6 0.0
07/09:00pm 18.1 14.0 13.8 76 2.4 SSE 28 39 15 21 1021.3 1021.3 0.0
07/08:30pm 18.4 14.8 14.1 76 2.5 SSE 26 37 14 20 1020.9 1020.9 0.0
07/08:00pm 19.0 14.7 14.3 74 2.7 SSE 30 35 16 19 1020.5 1020.5 0.0
07/07:30pm 19.4 15.4 14.0 71 3.1 SSE 28 35 15 19 1020.1 1020.1 0.0
07/07:00pm 19.8 15.4 14.2 70 3.2 SSE 30 39 16 21 1019.6 1019.6 0.0
07/06:30pm 20.5 16.6 14.4 68 3.5 SSE 28 37 15 20 1019.4 1019.4 0.0
07/06:00pm 21.9 18.0 14.5 63 4.3 SSE 28 37 15 20 1019.1 1019.1 0.0
07/05:30pm 21.7 17.6 13.9 61 4.5 SE 28 41 15 22 1018.9 1018.9 0.0
07/05:00pm 23.3 19.5 14.6 58 5.1 SSE 28 39 15 21 1018.9 1018.9 0.0
07/04:30pm 23.3 19.4 14.3 57 5.3 SSE 28 37 15 20 1018.8 1018.8 0.0
07/04:00pm 23.8 20.3 14.5 56 5.5 SSE 26 37 14 20 1018.7 1018.7 0.0
07/03:30pm 23.4 19.8 14.1 56 5.4 SSE 26 35 14 19 1018.7 1018.7 0.0
07/03:00pm 23.6 20.3 14.0 55 5.6 SSE 24 35 13 19 1018.8 1018.8 0.0
07/02:30pm 23.6 20.7 14.0 55 5.6 SSE 22 33 12 18 1018.8 1018.8 0.0
07/02:00pm 23.2 19.8 13.7 55 5.5 SSE 24 35 13 19 1019.2 1019.2 0.0
07/01:30pm 23.8 20.7 14.5 56 5.5 S 24 35 13 19 1019.2 1019.2 0.0
07/01:00pm 23.8 20.0 14.8 57 5.4 SSE 28 37 15 20 1019.1 1019.1 0.0
07/12:30pm 22.8 19.7 14.4 59 4.9 SSE 24 33 13 18 1019.3 1019.3 0.0
07/12:00pm 23.1 19.6 14.4 58 5.1 SE 26 37 14 20 1019.4 1019.4 0.0
07/11:30am 23.6 20.6 14.9 58 5.2 SE 24 33 13 18 1019.3 1019.3 0.0
07/11:00am 22.7 20.3 15.3 63 4.4 SSE 22 30 12 16 1019.2 1019.2 0.0
07/10:30am 21.5 19.0 14.2 63 4.2 SSE 20 30 11 16 1019.2 1019.2 0.0
07/10:00am 21.1 18.3 14.3 65 4.0 SSE 22 28 12 15 1019.1 1019.1 0.0
07/09:30am 20.3 17.5 14.2 68 3.5 SSE 22 26 12 14 1019.2 1019.2 0.0
07/09:00am 19.7 16.9 14.3 71 3.1 S 22 30 12 16 1019.0 1019.0 0.0
07/08:30am 19.1 16.5 15.0 77 2.4 S 22 30 12 16 1018.8 1018.8 0.0
07/08:00am 17.9 15.8 14.8 82 1.8 S 19 26 10 14 1018.6 1018.6 0.0
07/07:30am 16.7 16.3 15.2 91 0.9 S 11 15 6 8 1018.4 1018.4 0.0
07/07:00am 15.6 15.0 14.5 93 0.6 S 11 15 6 8 1017.9 1017.9 0.0
07/06:30am 15.9 15.2 14.4 91 0.9 S 11 13 6 7 1017.5 1017.5 0.0
07/06:00am 16.8 16.0 15.0 89 1.0 SSE 13 17 7 9 1017.3 1017.3 0.0
07/05:30am 17.3 16.6 15.5 89 1.1 S 13 19 7 10 1017.3 1017.3 0.0
07/05:00am 17.1 16.2 14.9 87 1.3 SSE 13 17 7 9 1017.0 1017.0 0.0
07/04:30am 17.7 16.1 15.1 85 1.5 S 17 24 9 13 1017.0 1017.0 0.0
07/04:03am 18.1 16.1 15.4 84 1.6 S 20 28 11 15 1017.2 1017.2 0.0
07/04:00am 18.1 16.1 15.4 84 1.6 S 20 26 11 14 1017.2 1017.2 0.0
07/03:30am 17.8 15.9 15.1 84 1.6 S 19 26 10 14 1016.8 1016.8 0.0
07/03:00am 17.4 17.0 15.2 87 1.3 S 11 17 6 9 1016.4 1016.4 0.0
07/02:30am 16.5 16.2 14.5 88 1.1 SSW 9 13 5 7 1016.4 1016.4 0.0
07/02:22am 16.3 15.7 14.5 89 1.0 S 11 13 6 7 1016.4 1016.4 0.0
07/02:00am 15.8 14.9 13.6 87 1.2 S 11 13 6 7 1016.4 1016.4 0.0
07/01:30am 16.9 16.1 14.0 83 1.6 SSE 11 15 6 8 1016.4 1016.4 0.0
07/01:00am 17.6 15.7 14.3 81 1.9 SSE 17 20 9 11 1016.9 1016.9 0.0
07/12:30am 18.2 15.8 14.5 79 2.1 S 20 28 11 15 1017.2 1017.2 0.0
07/12:00am 18.6 17.0 15.1 80 2.0 S 17 20 9 11 1017.4 1017.4 0.0
 
Date/Time
CDT
Temp
°C
App
Temp
°C
Dew
Point
Rel
Hum
%
Delta-T
°C
Wind Press
QNH
hPa
Press
MSL
hPa
Rain
since 9 am
mm
Dir
 
Spd
km/h
Gust
km/h
Spd
kts
Gust
kts
06/11:30pm 18.4 16.3 15.1 81 1.9 S 20 28 11 15 1017.4 1017.4 0.0
06/11:00pm 18.3 16.6 14.8 80 2.0 S 17 24 9 13 1017.4 1017.4 0.0
06/10:30pm 18.7 16.7 15.0 79 2.2 S 19 24 10 13 1017.3 1017.3 0.0
06/10:00pm 18.9 16.3 15.0 78 2.3 S 22 32 12 17 1017.2 1017.2 0.0
06/09:30pm 18.8 16.3 15.1 79 2.2 S 22 32 12 17 1016.9 1016.9 0.0
06/09:00pm 18.6 16.4 14.9 79 2.2 S 20 30 11 16 1016.6 1016.6 0.0
06/08:30pm 18.6 15.7 15.1 80 2.0 S 24 30 13 16 1016.4 1016.4 0.0
06/08:00pm 19.2 16.4 15.3 78 2.3 S 24 30 13 16 1015.9 1015.9 0.0
06/07:30pm 20.6 17.4 15.4 72 3.1 S 26 33 14 18 1015.7 1015.7 0.0
06/07:00pm 21.1 17.9 15.4 70 3.4 S 26 32 14 17 1015.3 1015.3 0.0
06/06:30pm 22.7 19.8 16.0 66 4.0 S 26 35 14 19 1015.1 1015.1 0.0

Other Formats:

Comma delimited format used in spreadsheet applications
http://www.bom.gov.au/fwo/IDS60801/IDS60801.95807.axf

JavaScript Object Notation format (JSON) in row-major order
http://www.bom.gov.au/fwo/IDS60801/IDS60801.95807.json